createdAt,value
2023-12-02T00:02:24.271Z,116.13
2023-12-02T00:04:56.210Z,133.13
2023-12-02T00:07:24.795Z,115.97
2023-12-02T00:09:53.162Z,116.87
2023-12-02T00:12:21.550Z,117.67
2023-12-02T00:14:50.161Z,117.10
2023-12-02T00:17:18.799Z,121.30
2023-12-02T00:19:47.068Z,121.17
2023-12-02T00:22:16.921Z,124.70
2023-12-02T00:24:45.610Z,110.63
2023-12-02T00:27:13.956Z,126.73
2023-12-02T00:29:42.353Z,124.93
2023-12-02T00:32:10.704Z,147.73
2023-12-02T00:34:39.039Z,148.73
2023-12-02T00:37:07.506Z,141.70
2023-12-02T00:39:37.354Z,136.53
2023-12-02T00:42:06.707Z,154.00
2023-12-02T00:44:35.117Z,121.70
2023-12-02T00:47:03.422Z,112.07
2023-12-02T00:49:31.720Z,122.10
2023-12-02T00:52:00.226Z,96.57
2023-12-02T00:54:28.513Z,87.30
2023-12-02T00:56:58.236Z,86.73
2023-12-02T00:59:26.590Z,98.90
2023-12-02T01:01:54.965Z,99.53
2023-12-02T01:04:23.376Z,92.93
2023-12-02T01:06:51.934Z,100.73
2023-12-02T01:09:20.331Z,118.60
2023-12-02T01:11:48.714Z,92.23
2023-12-02T01:14:18.317Z,83.90
2023-12-02T01:16:46.538Z,94.60
2023-12-02T01:19:14.947Z,99.33
2023-12-02T01:21:43.244Z,113.70
2023-12-02T01:24:11.538Z,100.50
2023-12-02T01:26:39.972Z,103.60
2023-12-02T01:29:08.497Z,92.43
2023-12-02T01:31:38.466Z,86.40
2023-12-02T01:34:06.814Z,96.47
2023-12-02T01:36:35.168Z,102.40
2023-12-02T01:39:03.600Z,93.90
2023-12-02T01:41:33.054Z,106.10
2023-12-02T01:44:01.374Z,105.13
2023-12-02T01:46:30.425Z,102.63
2023-12-02T01:49:01.659Z,91.60
2023-12-02T01:51:30.437Z,108.13
2023-12-02T01:53:58.750Z,113.70
2023-12-02T01:56:27.559Z,104.30
2023-12-02T01:58:56.413Z,121.00
2023-12-02T02:01:24.893Z,114.83
2023-12-02T02:03:53.933Z,97.77
2023-12-02T02:06:23.610Z,102.03
2023-12-02T02:08:51.967Z,107.43
2023-12-02T02:11:20.337Z,108.90
2023-12-02T02:13:48.771Z,99.87
2023-12-02T02:16:17.365Z,95.83
2023-12-02T02:18:45.649Z,114.10
2023-12-02T02:21:18.998Z,109.43
2023-12-02T02:23:47.290Z,106.60
2023-12-02T02:26:15.638Z,98.10
2023-12-02T02:28:43.997Z,100.57
2023-12-02T02:31:12.405Z,99.17
2023-12-02T02:33:40.739Z,94.80
2023-12-02T02:36:10.405Z,93.13
2023-12-02T02:38:40.197Z,87.33
2023-12-02T02:41:09.014Z,101.13
2023-12-02T02:43:37.252Z,88.73
2023-12-02T02:46:05.663Z,93.50
2023-12-02T02:48:34.150Z,98.33
2023-12-02T02:51:02.581Z,92.30
2023-12-02T02:53:30.854Z,90.53
2023-12-02T02:56:00.575Z,85.47
2023-12-02T02:58:31.492Z,85.87
2023-12-02T03:00:59.801Z,92.97
2023-12-02T03:03:28.157Z,86.37
2023-12-02T03:05:57.553Z,89.93
2023-12-02T03:08:26.118Z,88.37
2023-12-02T03:10:54.549Z,98.13
2023-12-02T03:13:24.221Z,97.97
2023-12-02T03:15:52.526Z,83.50
2023-12-02T03:18:21.024Z,94.57
2023-12-02T03:20:49.448Z,80.87
2023-12-02T03:23:17.808Z,90.10
2023-12-02T03:25:46.784Z,84.47
2023-12-02T03:28:15.554Z,93.40
2023-12-02T03:30:45.377Z,80.27
2023-12-02T03:33:13.797Z,82.13
2023-12-02T03:35:42.069Z,81.40
2023-12-02T03:38:10.333Z,89.83
2023-12-02T03:40:38.930Z,101.50
2023-12-02T03:43:07.365Z,91.47
2023-12-02T03:45:35.698Z,91.47
2023-12-02T03:48:06.137Z,97.17
2023-12-02T03:50:34.529Z,81.73
2023-12-02T03:53:04.091Z,102.07
2023-12-02T03:55:32.887Z,94.80
2023-12-02T03:58:01.221Z,94.47
2023-12-02T04:00:29.745Z,91.90
2023-12-02T04:03:00.602Z,94.67
2023-12-02T04:05:30.388Z,108.50
2023-12-02T04:07:58.801Z,93.43
2023-12-02T04:10:27.829Z,92.00
2023-12-02T04:12:56.097Z,91.70
2023-12-02T04:15:24.449Z,93.83
2023-12-02T04:17:52.730Z,92.53
2023-12-02T04:20:25.960Z,89.70
2023-12-02T04:22:58.416Z,106.67
2023-12-02T04:25:28.216Z,104.90
2023-12-02T04:27:56.608Z,119.00
2023-12-02T04:30:24.990Z,108.00
2023-12-02T04:32:53.385Z,96.20
2023-12-02T04:35:21.791Z,100.27
2023-12-02T04:37:50.140Z,102.23
2023-12-02T04:40:21.010Z,96.43
2023-12-02T04:42:49.275Z,109.00
2023-12-02T04:45:17.601Z,92.40
2023-12-02T04:47:45.949Z,94.23
2023-12-02T04:50:14.484Z,93.10
2023-12-02T04:52:42.758Z,90.30
2023-12-02T04:55:11.793Z,84.40
2023-12-02T04:57:41.472Z,92.67
2023-12-02T05:00:15.530Z,97.23
2023-12-02T05:02:44.670Z,92.27
2023-12-02T05:05:14.063Z,82.70
2023-12-02T05:07:43.132Z,114.23
2023-12-02T05:10:12.370Z,80.50
2023-12-02T05:12:42.473Z,85.10
2023-12-02T05:15:11.488Z,74.97
2023-12-02T05:17:40.027Z,83.20
2023-12-02T05:20:12.592Z,89.20
2023-12-02T05:22:40.955Z,86.83
2023-12-02T05:25:10.402Z,93.50
2023-12-02T05:27:39.116Z,85.20
2023-12-02T05:30:10.756Z,83.67
2023-12-02T05:32:39.468Z,100.40
2023-12-02T05:35:09.903Z,77.73
2023-12-02T05:37:38.207Z,88.30
2023-12-02T05:40:09.649Z,73.73
2023-12-02T05:42:38.054Z,57.77
2023-12-02T05:45:09.287Z,72.77
2023-12-02T05:47:37.713Z,62.00
2023-12-02T05:50:07.165Z,60.73
2023-12-02T05:52:35.549Z,58.63
2023-12-02T05:55:04.996Z,62.53
2023-12-02T05:57:34.529Z,57.30
2023-12-02T06:00:03.201Z,59.27
2023-12-02T06:02:34.303Z,53.93
2023-12-02T06:05:02.843Z,53.80
2023-12-02T06:07:31.068Z,62.40
2023-12-02T06:09:59.473Z,55.07
2023-12-02T06:12:27.807Z,58.17
2023-12-02T06:14:56.248Z,70.13
2023-12-02T06:17:24.611Z,53.63
2023-12-02T06:19:54.300Z,59.43
2023-12-02T06:22:22.655Z,59.57
2023-12-02T06:24:50.987Z,50.50
2023-12-02T06:27:19.329Z,42.80
2023-12-02T06:29:48.011Z,58.73
2023-12-02T06:32:16.429Z,54.47
2023-12-02T06:34:45.027Z,51.40
2023-12-02T06:37:14.798Z,59.60
2023-12-02T06:39:43.572Z,50.00
2023-12-02T06:42:12.096Z,55.97
2023-12-02T06:44:42.584Z,52.23
2023-12-02T06:47:12.293Z,60.87
2023-12-02T06:49:40.730Z,55.97
2023-12-02T06:52:09.423Z,64.27
2023-12-02T06:54:40.066Z,58.20
2023-12-02T06:57:08.570Z,51.50
2023-12-02T06:59:36.849Z,53.63
2023-12-02T07:02:05.511Z,57.87
2023-12-02T07:04:33.832Z,58.77
2023-12-02T07:07:02.135Z,63.07
2023-12-02T07:09:30.588Z,75.77
2023-12-02T07:12:00.377Z,69.90
2023-12-02T07:14:28.689Z,63.47
2023-12-02T07:16:57.038Z,56.60
2023-12-02T07:19:25.590Z,74.73
2023-12-02T07:21:54.019Z,57.83
2023-12-02T07:24:22.535Z,52.03
2023-12-02T07:26:51.081Z,65.33
2023-12-02T07:29:20.731Z,54.33
2023-12-02T07:31:48.979Z,63.93
2023-12-02T07:34:17.363Z,54.77
2023-12-02T07:36:45.642Z,59.83
2023-12-02T07:39:14.558Z,67.47
2023-12-02T07:41:43.786Z,72.17
2023-12-02T07:44:13.037Z,69.77
2023-12-02T07:46:43.103Z,63.03
2023-12-02T07:49:11.378Z,72.13
2023-12-02T07:51:39.650Z,59.43
2023-12-02T07:54:08.197Z,54.17
2023-12-02T07:56:39.017Z,57.83
2023-12-02T07:59:07.671Z,67.77
2023-12-02T08:01:36.494Z,70.90
2023-12-02T08:04:06.439Z,72.60
2023-12-02T08:06:34.897Z,61.47
2023-12-02T08:09:03.281Z,61.37
2023-12-02T08:11:31.982Z,60.40
2023-12-02T08:14:00.931Z,63.67
2023-12-02T08:16:29.672Z,59.77
2023-12-02T08:18:58.064Z,57.87
2023-12-02T08:21:27.793Z,62.53
2023-12-02T08:23:56.205Z,66.27
2023-12-02T08:26:24.798Z,65.23
2023-12-02T08:28:53.976Z,62.87
2023-12-02T08:31:23.278Z,69.67
2023-12-02T08:33:51.555Z,66.43
2023-12-02T08:36:20.701Z,67.13
2023-12-02T08:38:50.557Z,69.40
2023-12-02T08:41:19.000Z,66.27
2023-12-02T08:43:47.385Z,58.57
2023-12-02T08:46:16.470Z,64.50
2023-12-02T08:48:44.882Z,60.27
2023-12-02T08:51:13.432Z,65.23
2023-12-02T08:53:41.933Z,56.73
2023-12-02T08:56:12.486Z,62.30
2023-12-02T08:58:40.847Z,69.23
2023-12-02T09:01:09.604Z,63.53
2023-12-02T09:03:37.991Z,66.13
2023-12-02T09:06:06.991Z,69.77
2023-12-02T09:08:35.584Z,66.83
2023-12-02T09:11:04.144Z,60.97
2023-12-02T09:13:48.658Z,67.80
2023-12-02T09:16:21.274Z,64.30
2023-12-02T09:18:49.973Z,66.60
2023-12-02T09:21:43.748Z,59.80
2023-12-02T09:24:35.761Z,64.77
2023-12-02T09:27:07.267Z,53.90
2023-12-02T09:29:39.479Z,76.20
2023-12-02T09:32:31.779Z,67.27
2023-12-02T09:35:01.407Z,60.67
2023-12-02T09:37:58.217Z,75.83
2023-12-02T09:40:47.078Z,71.03
2023-12-02T09:43:27.343Z,64.03
2023-12-02T09:46:21.633Z,74.90
2023-12-02T09:49:04.814Z,69.77
2023-12-02T09:51:52.782Z,68.90
2023-12-02T09:54:47.478Z,78.90
2023-12-02T09:57:25.776Z,70.50
2023-12-02T10:00:06.224Z,82.63
2023-12-02T10:02:50.647Z,72.90
2023-12-02T10:05:20.251Z,66.83
2023-12-02T10:08:04.817Z,61.47
2023-12-02T10:10:45.342Z,56.27
2023-12-02T10:13:21.206Z,66.70
2023-12-02T10:15:51.102Z,66.50
2023-12-02T10:18:25.121Z,68.47
2023-12-02T10:21:01.363Z,53.40
2023-12-02T10:23:34.313Z,53.10
2023-12-02T10:26:08.090Z,66.67
2023-12-02T10:28:48.794Z,62.30
2023-12-02T10:31:30.890Z,61.83
2023-12-02T10:34:14.341Z,60.87
2023-12-02T10:36:44.173Z,58.93
2023-12-02T10:39:14.987Z,62.77
2023-12-02T10:41:49.878Z,59.23
2023-12-02T10:44:22.704Z,65.30
2023-12-02T10:46:51.656Z,60.87
2023-12-02T10:49:23.193Z,62.60
2023-12-02T10:54:26.493Z,62.87
2023-12-02T10:57:05.535Z,61.83
2023-12-02T10:59:37.010Z,46.93
2023-12-02T11:02:29.122Z,52.27
2023-12-02T11:05:14.493Z,54.70
2023-12-02T11:07:49.001Z,57.27
2023-12-02T11:10:23.463Z,42.73
2023-12-02T11:12:54.697Z,45.70
2023-12-02T11:15:24.760Z,54.40
2023-12-02T11:18:02.876Z,48.03
2023-12-02T11:20:44.931Z,51.77
2023-12-02T11:23:36.640Z,49.50
2023-12-02T11:26:23.969Z,45.93
2023-12-02T11:29:12.693Z,43.90
2023-12-02T11:32:13.048Z,43.00
2023-12-02T11:35:01.407Z,39.67
2023-12-02T11:37:43.818Z,45.63
2023-12-02T11:40:22.301Z,43.57
2023-12-02T11:43:09.360Z,59.30
2023-12-02T11:45:41.731Z,54.00
2023-12-02T11:48:18.823Z,47.87
2023-12-02T11:51:09.151Z,52.37
2023-12-02T11:54:03.982Z,41.53
2023-12-02T11:56:33.180Z,51.20
2023-12-02T11:59:11.155Z,55.50
2023-12-02T12:02:00.154Z,46.57
2023-12-02T12:04:57.141Z,50.20
2023-12-02T12:07:39.378Z,53.80
2023-12-02T12:10:15.588Z,56.93
2023-12-02T12:12:48.269Z,57.43
2023-12-02T12:15:16.929Z,54.10
2023-12-02T12:17:45.349Z,47.67
2023-12-02T12:20:20.515Z,57.43
2023-12-02T12:22:49.226Z,72.03
2023-12-02T12:25:19.195Z,65.87
2023-12-02T12:27:47.976Z,67.63
2023-12-02T12:30:16.688Z,60.17
2023-12-02T12:32:45.561Z,67.43
2023-12-02T12:35:16.233Z,67.73
2023-12-02T12:37:45.768Z,51.53
2023-12-02T12:40:15.183Z,59.50
2023-12-02T12:42:53.123Z,54.07
2023-12-02T12:45:21.659Z,52.50
2023-12-02T12:47:50.689Z,49.47
2023-12-02T12:50:23.900Z,45.53
2023-12-02T12:52:53.626Z,49.90
2023-12-02T12:55:24.923Z,51.37
2023-12-02T12:58:08.434Z,50.20
2023-12-02T13:00:41.026Z,64.23
2023-12-02T13:03:34.110Z,60.20
2023-12-02T13:06:14.597Z,43.70
2023-12-02T13:08:51.546Z,48.40
2023-12-02T13:11:28.476Z,58.97
2023-12-02T13:14:10.860Z,63.07
2023-12-02T13:16:40.879Z,56.53
2023-12-02T13:19:12.474Z,70.83
2023-12-02T13:21:42.928Z,70.93
2023-12-02T13:24:14.192Z,60.47
2023-12-02T13:26:42.992Z,56.87
2023-12-02T13:29:15.521Z,57.70
2023-12-02T13:31:44.502Z,50.07
2023-12-02T13:34:27.609Z,70.80
2023-12-02T13:36:56.566Z,54.70
2023-12-02T13:39:28.628Z,55.17
2023-12-02T13:41:57.984Z,54.17
2023-12-02T13:44:32.089Z,55.60
2023-12-02T13:47:06.703Z,57.17
2023-12-02T13:49:41.752Z,53.17
2023-12-02T13:52:34.983Z,59.53
2023-12-02T13:55:37.868Z,55.67
2023-12-02T13:58:16.024Z,60.57
2023-12-02T14:01:07.211Z,56.77
2023-12-02T14:03:57.753Z,55.97
2023-12-02T14:06:30.511Z,50.90
2023-12-02T14:09:01.084Z,50.87
2023-12-02T14:11:42.468Z,70.90
2023-12-02T14:14:28.114Z,66.13
2023-12-02T14:17:09.624Z,63.60
2023-12-02T14:20:05.654Z,62.37
2023-12-02T14:22:49.576Z,62.53
2023-12-02T14:25:35.686Z,64.57
2023-12-02T14:28:23.762Z,57.50
2023-12-02T14:31:08.250Z,53.33
2023-12-02T14:34:13.142Z,59.63
2023-12-02T14:36:56.970Z,53.07
2023-12-02T14:39:47.610Z,53.30
2023-12-02T14:42:27.108Z,50.70
2023-12-02T14:44:56.728Z,53.47
2023-12-02T14:47:25.236Z,78.03
2023-12-02T14:49:56.357Z,159.93
2023-12-02T14:52:26.615Z,69.13
2023-12-02T14:54:55.387Z,94.10
2023-12-02T14:57:26.756Z,76.27
2023-12-02T14:59:59.557Z,62.17
2023-12-02T15:02:41.856Z,85.27
2023-12-02T15:05:13.836Z,52.63
2023-12-02T15:07:44.792Z,55.17
2023-12-02T15:10:25.092Z,43.23
2023-12-02T15:13:03.096Z,66.10
2023-12-02T15:15:39.204Z,48.37
2023-12-02T15:18:09.868Z,44.97
2023-12-02T15:20:39.840Z,58.27
2023-12-02T15:23:36.951Z,52.83
2023-12-02T15:26:06.140Z,53.07
2023-12-02T15:28:50.323Z,64.07
2023-12-02T15:31:32.822Z,57.87
2023-12-02T15:34:03.040Z,56.00
2023-12-02T15:36:33.063Z,64.03
2023-12-02T15:39:01.618Z,59.13
2023-12-02T15:41:30.131Z,59.63
2023-12-02T15:44:00.500Z,62.10
2023-12-02T15:46:29.546Z,63.97
2023-12-02T15:48:59.279Z,54.43
2023-12-02T15:51:30.322Z,57.40
2023-12-02T15:54:01.336Z,53.93
2023-12-02T15:56:32.709Z,60.57
2023-12-02T15:59:02.541Z,65.10
2023-12-02T16:01:31.686Z,69.07
2023-12-02T16:04:00.388Z,60.93
2023-12-02T16:06:32.516Z,71.37
2023-12-02T16:09:04.199Z,70.03
2023-12-02T16:11:37.414Z,74.00
2023-12-02T16:14:07.348Z,65.00
2023-12-02T16:16:38.878Z,72.07
2023-12-02T16:19:08.138Z,66.43
2023-12-02T16:21:36.727Z,81.20
2023-12-02T16:24:08.077Z,79.80
2023-12-02T16:26:38.727Z,77.43
2023-12-02T16:29:08.643Z,80.93
2023-12-02T16:31:38.235Z,72.37
2023-12-02T16:34:06.731Z,71.47
2023-12-02T16:36:38.259Z,92.20
2023-12-02T16:39:13.221Z,79.90
2023-12-02T16:41:42.364Z,69.00
2023-12-02T16:44:10.674Z,80.00
2023-12-02T16:46:42.472Z,67.83
2023-12-02T16:49:23.347Z,66.37
2023-12-02T16:51:53.137Z,77.67
2023-12-02T16:54:23.616Z,66.33
2023-12-02T16:56:55.687Z,74.83
2023-12-02T16:59:50.647Z,74.17
2023-12-02T17:02:35.040Z,157.87
2023-12-02T17:05:05.027Z,80.13
2023-12-02T17:07:34.177Z,61.63
2023-12-02T17:10:16.636Z,87.20
2023-12-02T17:12:46.649Z,83.77
2023-12-02T17:15:28.758Z,78.10
2023-12-02T17:18:00.733Z,75.00
2023-12-02T17:20:38.147Z,79.10
2023-12-02T17:23:09.561Z,75.43
2023-12-02T17:25:56.204Z,92.77
2023-12-02T17:28:25.061Z,71.93
2023-12-02T17:30:53.534Z,87.57
2023-12-02T17:33:21.928Z,71.27
2023-12-02T17:35:50.243Z,70.73
2023-12-02T17:38:18.641Z,75.00
2023-12-02T17:40:48.355Z,72.97
2023-12-02T17:43:16.800Z,62.47
2023-12-02T17:45:45.291Z,80.13
2023-12-02T17:48:14.330Z,81.53
2023-12-02T17:50:43.266Z,85.93
2023-12-02T17:53:12.302Z,101.30
2023-12-02T17:55:41.357Z,91.60
2023-12-02T17:58:12.106Z,78.93
2023-12-02T18:00:41.918Z,82.30
2023-12-02T18:03:11.593Z,87.07
2023-12-02T18:05:40.066Z,87.23
2023-12-02T18:08:08.773Z,86.03
2023-12-02T18:10:37.362Z,77.93
2023-12-02T18:13:05.820Z,81.70
2023-12-02T18:15:36.105Z,94.67
2023-12-02T18:18:05.580Z,79.53
2023-12-02T18:20:34.483Z,82.30
2023-12-02T18:23:03.109Z,86.00
2023-12-02T18:25:31.431Z,98.53
2023-12-02T18:27:59.914Z,82.03
2023-12-02T18:30:28.565Z,96.07
2023-12-02T18:32:58.999Z,94.50
2023-12-02T18:35:27.532Z,92.13
2023-12-02T18:37:56.144Z,100.33
2023-12-02T18:40:26.110Z,98.80
2023-12-02T18:42:54.636Z,98.40
2023-12-02T18:45:23.063Z,121.27
2023-12-02T18:47:52.753Z,89.70
2023-12-02T18:50:22.651Z,83.83
2023-12-02T18:52:50.898Z,92.80
2023-12-02T18:55:19.686Z,82.43
2023-12-02T18:57:48.196Z,127.47
2023-12-02T19:00:17.276Z,129.30
2023-12-02T19:02:45.581Z,108.83
2023-12-02T19:05:14.341Z,89.77
2023-12-02T19:07:44.148Z,71.90
2023-12-02T19:10:12.551Z,80.90
2023-12-02T19:12:40.983Z,72.93
2023-12-02T19:15:10.363Z,78.77
2023-12-02T19:17:38.942Z,67.17
2023-12-02T19:20:09.060Z,67.00
2023-12-02T19:22:37.692Z,71.87
2023-12-02T19:25:09.331Z,65.77
2023-12-02T19:27:38.114Z,56.13
2023-12-02T19:30:08.384Z,63.60
2023-12-02T19:32:37.782Z,50.60
2023-12-02T19:35:07.191Z,54.80
2023-12-02T19:37:35.826Z,57.83
2023-12-02T19:40:04.962Z,51.87
2023-12-02T19:42:34.940Z,56.37
2023-12-02T19:45:03.943Z,58.80
2023-12-02T19:47:32.564Z,62.60
2023-12-02T19:50:01.296Z,73.27
2023-12-02T19:52:30.110Z,63.13
2023-12-02T19:54:58.392Z,62.73
2023-12-02T19:57:26.812Z,59.73
2023-12-02T19:59:57.759Z,64.77
2023-12-02T20:02:26.410Z,69.03
2023-12-02T20:04:54.968Z,65.57
2023-12-02T20:07:23.627Z,57.63
2023-12-02T20:09:52.160Z,68.57
2023-12-02T20:12:23.247Z,72.20
2023-12-02T20:14:52.076Z,73.77
2023-12-02T20:17:21.999Z,66.50
2023-12-02T20:19:50.625Z,65.43
2023-12-02T20:22:19.096Z,72.03
2023-12-02T20:24:47.458Z,78.63
2023-12-02T20:27:16.156Z,68.83
2023-12-02T20:29:44.732Z,66.20
2023-12-02T20:32:13.148Z,75.00
2023-12-02T20:34:43.072Z,75.37
2023-12-02T20:37:12.711Z,71.37
2023-12-02T20:39:41.315Z,71.27
2023-12-02T20:42:09.866Z,75.33
2023-12-02T20:44:38.437Z,73.50
2023-12-02T20:47:07.199Z,74.97
2023-12-02T20:49:35.673Z,63.13
2023-12-02T20:52:05.886Z,81.70
2023-12-02T20:54:34.294Z,70.33
2023-12-02T20:57:02.697Z,71.97
2023-12-02T20:59:32.321Z,73.60
2023-12-02T21:02:00.840Z,79.10
2023-12-02T21:04:29.298Z,66.43
2023-12-02T21:06:57.772Z,64.37
2023-12-02T21:09:27.948Z,70.73
2023-12-02T21:11:56.334Z,88.03
2023-12-02T21:14:24.670Z,68.70
2023-12-02T21:16:53.134Z,87.80
2023-12-02T21:19:21.834Z,71.60
2023-12-02T21:21:50.384Z,81.73
2023-12-02T21:24:18.868Z,81.53
2023-12-02T21:26:48.773Z,76.30
2023-12-02T21:29:17.333Z,80.63
2023-12-02T21:31:45.541Z,72.23
2023-12-02T21:34:17.572Z,77.63
2023-12-02T21:36:46.105Z,74.37
2023-12-02T21:39:20.019Z,88.43
2023-12-02T21:41:50.065Z,69.23
2023-12-02T21:44:18.885Z,66.93
2023-12-02T21:46:48.027Z,75.43
2023-12-02T21:49:20.681Z,70.90
2023-12-02T21:51:51.464Z,77.37
2023-12-02T21:54:22.005Z,63.77
2023-12-02T21:56:53.554Z,66.23
2023-12-02T21:59:23.218Z,68.40
2023-12-02T22:01:53.155Z,64.13
2023-12-02T22:04:22.835Z,59.37
2023-12-02T22:06:52.279Z,68.17
2023-12-02T22:09:39.071Z,79.03
2023-12-02T22:12:25.542Z,65.23
2023-12-02T22:14:54.153Z,62.83
2023-12-02T22:17:24.494Z,59.17
2023-12-02T22:19:54.346Z,61.87
2023-12-02T22:22:53.440Z,67.87
2023-12-02T22:25:22.733Z,57.40
2023-12-02T22:28:03.670Z,67.77
2023-12-02T22:30:40.973Z,65.77
2023-12-02T22:33:09.405Z,61.17
2023-12-02T22:35:40.639Z,63.13
2023-12-02T22:38:12.781Z,63.87
2023-12-02T22:40:46.850Z,65.90
2023-12-02T22:43:23.570Z,65.10
2023-12-02T22:45:52.851Z,66.83
2023-12-02T22:48:36.028Z,71.43
2023-12-02T22:51:06.572Z,54.87
2023-12-02T22:53:36.750Z,52.40
2023-12-02T22:56:05.960Z,67.23
2023-12-02T22:58:40.299Z,57.30
2023-12-02T23:01:09.933Z,58.77
2023-12-02T23:03:41.081Z,60.67
2023-12-02T23:06:11.117Z,54.63
2023-12-02T23:08:40.221Z,49.37
2023-12-02T23:11:23.615Z,54.63
2023-12-02T23:13:53.686Z,60.20
2023-12-02T23:16:40.784Z,52.37
2023-12-02T23:19:23.532Z,48.60
2023-12-02T23:21:52.543Z,44.10
2023-12-02T23:24:21.132Z,49.47
2023-12-02T23:26:49.661Z,53.27
2023-12-02T23:29:19.522Z,57.97
2023-12-02T23:31:47.830Z,45.60
2023-12-02T23:34:16.299Z,38.47
2023-12-02T23:36:45.079Z,52.10
2023-12-02T23:39:25.870Z,40.43
2023-12-02T23:41:57.057Z,37.23
2023-12-02T23:44:44.854Z,42.10
2023-12-02T23:47:18.258Z,38.73
2023-12-02T23:49:46.742Z,36.60
2023-12-02T23:52:15.942Z,41.33
2023-12-02T23:54:44.312Z,37.70
2023-12-02T23:57:13.001Z,44.10
2023-12-02T23:59:43.670Z,43.50
